Ghaziabad Weather



Ghaziabad's Current Weather

Temprature 40.44o broken clouds

broken clouds

Rain: 0 %

Min Temprature40.44o
Max Temprature40.44o
Humidity31
Wind Speed3.56 m/h
Sun Rise05:22:10
Sun Set19:08:28
Current Time: 24-Jul-2021 17:08:44
Lat/Lon: 30.3982, 72.7553




Ghaziabad's Geo Location



Ghaziabad's Weather Forecast

Time Overall Temp Min Temp Max Temp Humidity Wind Speed Rain
24-Jul-2021 (Sat)
20:00:00 scattered clouds 39.430 37.420 39.430 34 2.86 m/h 0 %
23:00:00 scattered clouds 37.530 36.080 37.530 39 2.67 m/h 0 %
25-Jul-2021 (Sun)
02:00:00 few clouds 34.900 34.900 34.900 48 2.9 m/h 0 %
05:00:00 few clouds 34.180 34.180 34.180 50 2.18 m/h 0 %
08:00:00 scattered clouds 37.790 37.790 37.790 39 3.1 m/h 0 %
11:00:00 few clouds 41.650 41.650 41.650 30 3.07 m/h 0 %
14:00:00 few clouds 44.390 44.390 44.390 23 3.25 m/h 0 %
17:00:00 scattered clouds 43.690 43.690 43.690 24 5.6 m/h 0 %
20:00:00 broken clouds 40.660 40.660 40.660 31 3.84 m/h 0 %
23:00:00 broken clouds 38.880 38.880 38.880 33 3.39 m/h 0 %
26-Jul-2021 (Mon)
02:00:00 broken clouds 37.600 37.600 37.600 37 4.89 m/h 0 %
05:00:00 scattered clouds 35.620 35.620 35.620 44 3.86 m/h 0 %
08:00:00 scattered clouds 37.710 37.710 37.710 39 5.89 m/h 0 %
11:00:00 broken clouds 41.930 41.930 41.930 30 5.31 m/h 0 %
14:00:00 overcast clouds 43.150 43.150 43.150 27 5.99 m/h 0 %
17:00:00 overcast clouds 41.720 41.720 41.720 30 7.93 m/h 0 %
20:00:00 overcast clouds 38.820 38.820 38.820 35 6.68 m/h 0 %
23:00:00 overcast clouds 37.270 37.270 37.270 39 7.57 m/h 0 %
27-Jul-2021 (Tue)
02:00:00 overcast clouds 34.790 34.790 34.790 46 8.18 m/h 0 %
05:00:00 overcast clouds 31.800 31.800 31.800 59 7.78 m/h 0 %
08:00:00 overcast clouds 32.680 32.680 32.680 56 7.4 m/h 0 %
11:00:00 overcast clouds 37.110 37.110 37.110 41 6.74 m/h 0 %
14:00:00 few clouds 38.820 38.820 38.820 36 7.61 m/h 0 %
17:00:00 scattered clouds 38.030 38.030 38.030 38 7 m/h 0 %
20:00:00 broken clouds 34.760 34.760 34.760 46 7.53 m/h 0 %
23:00:00 overcast clouds 32.790 32.790 32.790 54 6.47 m/h 0 %
28-Jul-2021 (Wed)
02:00:00 overcast clouds 31.090 31.090 31.090 62 5.63 m/h 0 %
05:00:00 scattered clouds 29.990 29.990 29.990 67 4.2 m/h 0 %
08:00:00 broken clouds 32.150 32.150 32.150 59 5.37 m/h 0 %
11:00:00 broken clouds 36.270 36.270 36.270 45 4.53 m/h 0 %
14:00:00 overcast clouds 36.770 36.770 36.770 43 5.93 m/h 0 %
17:00:00 overcast clouds 36.330 36.330 36.330 45 5.78 m/h 0 %
20:00:00 overcast clouds 31.590 31.590 31.590 62 6.22 m/h 0 %
23:00:00 overcast clouds 30.150 30.150 30.150 70 5.07 m/h 0 %
29-Jul-2021 (Thu)
02:00:00 overcast clouds 30.590 30.590 30.590 66 3.91 m/h 0 %
05:00:00 light rain 29.840 29.840 29.840 69 2.21 m/h 36 %
08:00:00 light rain 32.620 32.620 32.620 57 2.08 m/h 15 %
11:00:00 broken clouds 37.910 37.910 37.910 40 1.62 m/h 0 %
14:00:00 light rain 37.430 37.430 37.430 40 2.71 m/h 50 %
17:00:00 light rain 37.950 37.950 37.950 40 3.58 m/h 52 %

Famous Cities (60)